Time;durP1;ratioP1;P1;durP2;ratioP2;P2;SDS_P1;SDS_P2;PMS_P1;PMS_P2;Temp;Humidity;BMP_temperature;BMP_pressure;BME280_temperature;BME280_humidity;BME280_pressure;Samples;Min_cycle;Max_cycle;Signal;HPM_P1;HPM_P2
2022/11/25 00:01:26;;;;;;;35.07;25.97;;;3.20;99.90;;;;;;4968861;28;20552;-53
2022/11/25 00:03:55;;;;;;;35.83;27.07;;;3.20;99.90;;;;;;4974303;28;20555;-53
2022/11/25 00:06:23;;;;;;;39.47;28.13;;;3.20;99.90;;;;;;4970150;28;20513;-53
2022/11/25 00:08:54;;;;;;;36.80;26.43;;;3.20;99.90;;;;;;4974204;28;20465;-53
2022/11/25 00:11:21;;;;;;;38.10;25.93;;;3.20;99.90;;;;;;4968498;28;20540;-52
2022/11/25 00:13:49;;;;;;;46.33;28.20;;;3.30;99.90;;;;;;4977717;28;20552;-53
2022/11/25 00:16:18;;;;;;;38.47;26.90;;;3.20;99.90;;;;;;4968102;28;20909;-54
2022/11/25 00:18:45;;;;;;;32.77;25.83;;;3.30;99.90;;;;;;4965821;28;20459;-54
2022/11/25 00:21:13;;;;;;;37.30;27.57;;;3.30;99.90;;;;;;4967631;28;20485;-57
2022/11/25 00:23:40;;;;;;;35.83;26.33;;;3.30;99.90;;;;;;4966587;28;21054;-52
2022/11/25 00:26:09;;;;;;;36.73;26.40;;;3.30;99.90;;;;;;4971986;28;20469;-53
2022/11/25 00:28:39;;;;;;;37.90;25.83;;;3.30;99.90;;;;;;4969119;28;20465;-51
2022/11/25 00:31:08;;;;;;;34.80;25.30;;;3.30;99.90;;;;;;4966214;28;20461;-50
2022/11/25 00:33:34;;;;;;;37.50;26.90;;;3.30;99.90;;;;;;4965202;28;21060;-51
2022/11/25 00:36:02;;;;;;;37.13;26.80;;;3.30;99.90;;;;;;4970530;28;20878;-51
2022/11/25 00:38:29;;;;;;;40.63;28.10;;;3.30;99.90;;;;;;4962511;28;20819;-50
2022/11/25 00:44:34;;;;;;;39.97;25.60;;;3.30;99.90;;;;;;4967528;28;20870;-50
2022/11/25 00:46:33;;;;;;;34.63;24.67;;;3.40;99.90;;;;;;4969275;28;20982;-51
2022/11/25 00:48:59;;;;;;;39.40;26.63;;;3.40;99.90;;;;;;4967870;28;20519;-50
2022/11/25 00:51:26;;;;;;;34.77;24.77;;;3.40;99.90;;;;;;4966017;28;20461;-50
2022/11/25 00:53:53;;;;;;;43.43;28.27;;;3.40;99.90;;;;;;4967202;28;20477;-50
2022/11/25 00:56:22;;;;;;;38.83;26.07;;;3.50;99.90;;;;;;4968549;28;20462;-50
2022/11/25 00:58:50;;;;;;;38.50;25.50;;;3.50;99.90;;;;;;4968135;28;20850;-49
2022/11/25 01:01:16;;;;;;;37.97;26.43;;;3.50;99.90;;;;;;4968240;28;20998;-50
2022/11/25 01:03:43;;;;;;;36.93;26.23;;;3.50;99.90;;;;;;4969820;28;20485;-50
2022/11/25 01:06:11;;;;;;;38.40;26.13;;;3.50;99.90;;;;;;4970827;28;20520;-50
2022/11/25 01:08:38;;;;;;;35.60;23.80;;;3.50;99.90;;;;;;4967246;28;20465;-51
2022/11/25 01:11:07;;;;;;;36.97;26.10;;;3.50;99.90;;;;;;4971073;28;20469;-50
2022/11/25 01:13:34;;;;;;;39.20;24.13;;;3.50;99.90;;;;;;4968218;28;20564;-50
2022/11/25 01:16:03;;;;;;;33.83;24.17;;;3.40;99.90;;;;;;4969948;28;20886;-50
2022/11/25 01:18:30;;;;;;;34.13;23.80;;;3.50;99.90;;;;;;4969851;28;20466;-50
2022/11/25 01:21:06;;;;;;;34.47;24.23;;;3.50;99.90;;;;;;4970777;28;20878;-50
2022/11/25 01:23:32;;;;;;;36.27;24.90;;;3.50;99.90;;;;;;4970110;28;20508;-50
2022/11/25 01:26:02;;;;;;;33.20;23.73;;;3.50;99.90;;;;;;4968982;28;20473;-50
2022/11/25 01:28:28;;;;;;;31.60;23.77;;;3.50;99.90;;;;;;4967096;28;20860;-50
2022/11/25 01:31:00;;;;;;;38.73;24.70;;;3.50;99.90;;;;;;4968441;28;20488;-49
2022/11/25 01:33:28;;;;;;;32.63;23.47;;;3.50;99.90;;;;;;4971607;28;20485;-50
2022/11/25 01:35:54;;;;;;;39.90;25.13;;;3.50;99.90;;;;;;4965505;28;20540;-50
2022/11/25 01:38:21;;;;;;;37.90;24.30;;;3.50;99.90;;;;;;4970383;28;20814;-50
2022/11/25 01:40:47;;;;;;;33.77;24.23;;;3.50;99.90;;;;;;4970957;28;20461;-50
2022/11/25 01:43:14;;;;;;;31.80;23.27;;;3.50;99.90;;;;;;4969347;28;20493;-50
2022/11/25 01:45:41;;;;;;;35.57;25.63;;;3.40;99.90;;;;;;4969915;28;20543;-50
2022/11/25 01:48:14;;;;;;;36.50;24.93;;;3.40;99.90;;;;;;4969023;28;21033;-50
2022/11/25 01:50:43;;;;;;;40.03;26.30;;;3.30;99.90;;;;;;4972093;28;20470;-51
2022/11/25 01:53:11;;;;;;;38.53;25.90;;;3.30;99.90;;;;;;4968906;28;20556;-51
2022/11/25 01:55:42;;;;;;;41.03;26.93;;;3.30;99.90;;;;;;4970484;28;20843;-50
2022/11/25 01:58:14;;;;;;;35.63;24.13;;;3.30;99.90;;;;;;4969535;28;20466;-50
2022/11/25 02:00:49;;;;;;;37.10;24.90;;;3.30;99.90;;;;;;4965843;28;20441;-51
2022/11/25 02:03:18;;;;;;;43.33;25.60;;;3.30;99.90;;;;;;4972348;28;20495;-50
2022/11/25 02:05:51;;;;;;;40.63;26.27;;;3.20;99.90;;;;;;4970933;28;20469;-50
2022/11/25 02:08:20;;;;;;;36.57;25.80;;;3.20;99.90;;;;;;4965932;28;20465;-49
2022/11/25 02:10:47;;;;;;;40.10;26.10;;;3.10;99.90;;;;;;4966912;28;20452;-50
2022/11/25 02:13:13;;;;;;;36.30;23.30;;;3.10;99.90;;;;;;4972619;28;20485;-50
2022/11/25 02:15:40;;;;;;;35.40;23.47;;;3.00;99.90;;;;;;4971875;28;20458;-50
2022/11/25 02:18:07;;;;;;;36.07;23.80;;;3.00;99.90;;;;;;4970941;28;20485;-50
2022/11/25 02:20:33;;;;;;;37.37;25.30;;;2.90;99.90;;;;;;4968761;28;20465;-50
2022/11/25 02:23:08;;;;;;;35.63;24.53;;;2.90;99.90;;;;;;4969320;28;20512;-50
2022/11/25 02:25:38;;;;;;;37.77;24.83;;;2.90;99.90;;;;;;4971685;28;20479;-51
2022/11/25 02:28:09;;;;;;;36.87;25.53;;;2.90;99.90;;;;;;4972692;28;20469;-50
2022/11/25 02:30:36;;;;;;;38.50;25.10;;;2.90;99.90;;;;;;4971477;28;20520;-50
2022/11/25 02:33:03;;;;;;;37.27;26.33;;;2.90;99.90;;;;;;4970611;28;20541;-50
2022/11/25 02:35:33;;;;;;;40.63;25.80;;;2.90;99.90;;;;;;4971904;28;20532;-51
2022/11/25 02:38:05;;;;;;;36.07;25.10;;;2.90;99.90;;;;;;4969284;28;20485;-50
2022/11/25 02:40:35;;;;;;;39.90;25.07;;;2.90;99.90;;;;;;4971553;28;20457;-51
2022/11/25 02:43:03;;;;;;;36.43;24.93;;;3.00;99.90;;;;;;4969767;28;20576;-51
2022/11/25 02:45:41;;;;;;;40.80;23.70;;;3.00;99.90;;;;;;4972116;28;20470;-51
2022/11/25 02:48:08;;;;;;;33.83;24.13;;;3.10;99.90;;;;;;4970827;28;20469;-50
2022/11/25 02:50:35;;;;;;;36.23;24.57;;;3.10;99.90;;;;;;4968191;28;20497;-49
2022/11/25 02:53:01;;;;;;;35.43;24.77;;;3.10;99.90;;;;;;4968140;28;20998;-50
2022/11/25 02:55:28;;;;;;;33.37;22.77;;;3.10;99.90;;;;;;4972933;28;20496;-51
2022/11/25 02:57:54;;;;;;;34.30;23.47;;;3.10;99.90;;;;;;4971141;28;20828;-51
2022/11/25 03:00:23;;;;;;;41.50;24.87;;;3.10;99.90;;;;;;4968400;28;20524;-49
2022/11/25 03:02:53;;;;;;;41.50;24.83;;;3.20;99.90;;;;;;4968094;28;20543;-51
2022/11/25 03:05:19;;;;;;;47.87;26.33;;;3.20;99.90;;;;;;4965691;28;20465;-50
2022/11/25 03:07:46;;;;;;;44.77;27.07;;;3.30;99.90;;;;;;4968732;28;20586;-50
2022/11/25 03:10:13;;;;;;;39.97;26.30;;;3.30;99.90;;;;;;4964732;28;20902;-51
2022/11/25 03:12:40;;;;;;;40.33;26.07;;;3.40;99.90;;;;;;4965048;28;20908;-50
2022/11/25 03:15:07;;;;;;;40.67;25.80;;;3.40;99.90;;;;;;4966785;28;20493;-51
2022/11/25 03:17:35;;;;;;;37.97;26.40;;;3.40;99.90;;;;;;4969360;28;21018;-50
2022/11/25 03:20:02;;;;;;;39.93;26.17;;;3.40;99.90;;;;;;4970099;28;20541;-50
2022/11/25 03:22:28;;;;;;;39.83;26.43;;;3.50;99.90;;;;;;4969444;28;20490;-50
2022/11/25 03:24:55;;;;;;;39.00;25.77;;;3.50;99.90;;;;;;4969904;28;20502;-50
2022/11/25 03:27:22;;;;;;;43.90;27.20;;;3.40;99.90;;;;;;4966581;28;20461;-50
2022/11/25 03:29:48;;;;;;;40.80;26.57;;;3.40;99.90;;;;;;4960383;28;21323;-50
2022/11/25 03:32:15;;;;;;;35.07;25.50;;;3.40;99.90;;;;;;4963480;28;20523;-51
2022/11/25 03:34:43;;;;;;;37.87;26.60;;;3.50;99.90;;;;;;4962776;28;21466;-50
2022/11/25 03:37:09;;;;;;;39.83;25.27;;;3.40;99.90;;;;;;4968040;28;20573;-50
2022/11/25 03:39:36;;;;;;;43.77;27.70;;;3.50;99.90;;;;;;4963281;28;20480;-50
2022/11/25 03:42:03;;;;;;;36.77;24.67;;;3.40;99.90;;;;;;4964997;28;20544;-50
2022/11/25 03:44:29;;;;;;;40.23;26.40;;;3.40;99.90;;;;;;4962358;28;20525;-50
2022/11/25 03:46:56;;;;;;;39.33;25.57;;;3.50;99.90;;;;;;4968063;28;20461;-49
2022/11/25 03:49:23;;;;;;;42.00;26.47;;;3.50;99.90;;;;;;4967759;28;20551;-51
2022/11/25 03:51:51;;;;;;;44.63;26.33;;;3.50;99.90;;;;;;4971351;28;20584;-51
2022/11/25 03:54:17;;;;;;;36.37;25.43;;;3.50;99.90;;;;;;4966855;28;20558;-50
2022/11/25 03:56:44;;;;;;;38.70;27.10;;;3.50;99.90;;;;;;4969121;28;20458;-50
2022/11/25 03:59:11;;;;;;;38.27;25.47;;;3.50;99.90;;;;;;4971167;28;20548;-50
2022/11/25 04:01:37;;;;;;;38.93;26.53;;;3.50;99.90;;;;;;4970392;28;20901;-50
2022/11/25 04:04:04;;;;;;;40.87;26.30;;;3.50;99.90;;;;;;4966335;28;20904;-50
2022/11/25 04:06:31;;;;;;;46.03;25.63;;;3.50;99.90;;;;;;4964706;28;20494;-50
2022/11/25 04:09:00;;;;;;;35.87;25.00;;;3.50;99.90;;;;;;4967524;28;20559;-50
2022/11/25 04:12:45;;;;;;;41.73;25.73;;;3.50;99.90;;;;;;4973088;28;20955;-50
2022/11/25 04:14:13;;;;;;;48.30;25.50;;;3.50;99.90;;;;;;4965918;28;20454;-51
2022/11/25 04:16:40;;;;;;;34.93;24.20;;;3.50;99.90;;;;;;4967560;28;20463;-50
2022/11/25 04:19:06;;;;;;;39.03;24.60;;;3.50;99.90;;;;;;4967902;28;20506;-50
2022/11/25 04:21:33;;;;;;;39.80;25.37;;;3.50;99.90;;;;;;4971498;28;20560;-50
2022/11/25 04:24:01;;;;;;;37.43;24.37;;;3.50;99.90;;;;;;4969084;28;20505;-50
2022/11/25 04:26:27;;;;;;;35.70;25.40;;;3.50;99.90;;;;;;4967246;28;20537;-51
2022/11/25 04:28:54;;;;;;;40.17;26.37;;;3.50;99.90;;;;;;4965630;28;20497;-51
2022/11/25 04:31:21;;;;;;;39.80;25.83;;;3.60;99.90;;;;;;4975469;28;20948;-50
2022/11/25 04:33:47;;;;;;;33.33;24.30;;;3.50;99.90;;;;;;4970875;28;20486;-50
2022/11/25 04:36:14;;;;;;;41.90;25.07;;;3.60;99.90;;;;;;4966831;28;20474;-50
2022/11/25 04:38:40;;;;;;;34.70;23.10;;;3.50;99.90;;;;;;4971996;28;20461;-50
2022/11/25 04:41:09;;;;;;;40.40;25.73;;;3.60;99.90;;;;;;4971750;28;20552;-50
2022/11/25 04:43:35;;;;;;;36.33;23.80;;;3.60;99.90;;;;;;4968771;28;20513;-50
2022/11/25 04:46:03;;;;;;;38.03;24.63;;;3.60;99.90;;;;;;4966893;28;20497;-50
2022/11/25 04:48:29;;;;;;;32.27;23.87;;;3.60;99.90;;;;;;4970622;28;20528;-51
2022/11/25 04:50:56;;;;;;;34.03;24.13;;;3.60;99.90;;;;;;4971395;28;20545;-50
2022/11/25 04:53:23;;;;;;;37.20;23.60;;;3.60;99.90;;;;;;4975457;28;20822;-50
2022/11/25 04:55:49;;;;;;;31.93;22.10;;;3.60;99.90;;;;;;4968959;28;20489;-50
2022/11/25 04:59:38;;;;;;;38.50;24.90;;;3.60;99.90;;;;;;4968695;28;20465;-50
2022/11/25 05:01:03;;;;;;;35.00;22.43;;;3.60;99.90;;;;;;4967925;28;20453;-51
2022/11/25 05:03:30;;;;;;;35.60;23.07;;;3.60;99.90;;;;;;4971774;28;20497;-50
2022/11/25 05:05:56;;;;;;;32.67;23.70;;;3.60;99.90;;;;;;4972142;28;20219;-51
2022/11/25 05:08:23;;;;;;;33.83;22.17;;;3.50;99.90;;;;;;4973027;28;20466;-50
2022/11/25 05:10:49;;;;;;;36.73;24.67;;;3.60;99.90;;;;;;4969459;28;20497;-50
2022/11/25 05:13:17;;;;;;;34.67;22.60;;;3.60;99.90;;;;;;4964352;28;20485;-55
2022/11/25 05:15:44;;;;;;;38.43;25.40;;;3.60;99.90;;;;;;4970748;28;20470;-54
2022/11/25 05:18:11;;;;;;;33.17;21.80;;;3.60;99.90;;;;;;4971292;28;20461;-51
2022/11/25 05:20:37;;;;;;;37.13;24.50;;;3.60;99.90;;;;;;4964233;28;20473;-51
2022/11/25 05:23:04;;;;;;;41.40;24.50;;;3.60;99.90;;;;;;4965202;28;20544;-55
2022/11/25 05:25:30;;;;;;;34.70;21.87;;;3.70;99.90;;;;;;4964360;28;20461;-50
2022/11/25 05:27:57;;;;;;;38.37;24.10;;;3.70;99.90;;;;;;4967050;28;21248;-50
2022/11/25 05:30:25;;;;;;;34.97;24.07;;;3.60;99.90;;;;;;4966926;28;20493;-50
2022/11/25 05:32:51;;;;;;;39.90;24.87;;;3.60;99.90;;;;;;4962561;28;20489;-49
2022/11/25 05:35:18;;;;;;;36.60;24.40;;;3.70;99.90;;;;;;4971857;28;20473;-50
2022/11/25 05:37:45;;;;;;;39.60;24.87;;;3.70;99.90;;;;;;4966006;28;21137;-50
2022/11/25 05:40:12;;;;;;;37.30;24.33;;;3.80;99.90;;;;;;4966140;28;20552;-50
2022/11/25 05:42:39;;;;;;;36.07;23.70;;;3.80;99.90;;;;;;4968604;28;20481;-50
2022/11/25 05:45:07;;;;;;;35.30;23.83;;;3.80;99.90;;;;;;4968042;28;20465;-50
2022/11/25 05:47:35;;;;;;;41.63;23.20;;;3.80;99.90;;;;;;4964571;28;20462;-50
2022/11/25 05:50:01;;;;;;;39.07;24.30;;;3.80;99.90;;;;;;4965462;28;20498;-51
2022/11/25 05:52:28;;;;;;;33.30;22.63;;;3.80;99.90;;;;;;4967550;28;20519;-50
2022/11/25 05:54:55;;;;;;;39.17;23.23;;;3.80;99.90;;;;;;4970785;28;20461;-50
2022/11/25 05:57:21;;;;;;;37.93;24.53;;;3.80;99.90;;;;;;4972511;28;20465;-50
2022/11/25 05:59:48;;;;;;;40.13;24.57;;;3.80;99.90;;;;;;4962494;28;21122;-50
2022/11/25 06:02:14;;;;;;;42.30;24.67;;;3.80;99.90;;;;;;4963380;28;20513;-49
2022/11/25 06:04:42;;;;;;;37.83;22.70;;;3.80;99.90;;;;;;4967567;28;20552;-50
2022/11/25 06:07:09;;;;;;;34.60;22.53;;;3.80;99.90;;;;;;4956775;28;21238;-48
2022/11/25 06:09:36;;;;;;;39.60;25.80;;;3.80;99.90;;;;;;4961615;28;20512;-50
2022/11/25 06:12:02;;;;;;;40.47;24.00;;;3.90;99.90;;;;;;4963955;28;20888;-50
2022/11/25 06:14:29;;;;;;;38.63;24.50;;;3.90;99.90;;;;;;4971044;28;20804;-50
2022/11/25 06:16:55;;;;;;;37.90;22.63;;;3.80;99.90;;;;;;4967613;28;20493;-50
2022/11/25 06:19:22;;;;;;;36.50;23.67;;;3.80;99.90;;;;;;4963396;28;22574;-50
2022/11/25 06:21:50;;;;;;;39.60;25.33;;;3.70;99.90;;;;;;4969255;28;20489;-55
2022/11/25 06:24:17;;;;;;;35.10;24.00;;;3.60;99.90;;;;;;4967203;28;20493;-55
2022/11/25 06:26:43;;;;;;;43.93;24.60;;;3.60;99.90;;;;;;4969745;28;20466;-55
2022/11/25 06:29:10;;;;;;;41.00;24.43;;;3.50;99.90;;;;;;4968717;28;20520;-55
2022/11/25 06:31:36;;;;;;;36.77;24.60;;;3.50;99.90;;;;;;4970376;28;20461;-55
2022/11/25 06:34:05;;;;;;;43.07;25.57;;;3.40;99.90;;;;;;4967494;28;20459;-55
2022/11/25 06:36:31;;;;;;;38.37;24.50;;;3.30;99.90;;;;;;4975200;28;20461;-54
2022/11/25 06:38:59;;;;;;;39.90;25.57;;;3.20;99.90;;;;;;4966551;28;20509;-55
2022/11/25 06:41:26;;;;;;;37.20;24.40;;;3.20;99.90;;;;;;4970296;28;20483;-54
2022/11/25 06:43:53;;;;;;;39.73;25.50;;;3.20;99.90;;;;;;4970981;28;20489;-55
2022/11/25 06:46:20;;;;;;;38.27;23.27;;;3.10;99.90;;;;;;4967208;28;20492;-55
2022/11/25 06:48:47;;;;;;;37.27;24.63;;;3.00;99.90;;;;;;4970591;28;20524;-55
2022/11/25 06:51:15;;;;;;;39.27;24.57;;;3.00;99.90;;;;;;4969943;28;20469;-54
2022/11/25 06:53:42;;;;;;;48.00;25.70;;;3.00;99.90;;;;;;4965980;28;20502;-54
2022/11/25 06:56:13;;;;;;;39.73;23.70;;;3.00;99.90;;;;;;4962570;28;20466;-53
2022/11/25 06:58:41;;;;;;;35.70;22.67;;;3.10;99.90;;;;;;4971856;28;20544;-55
2022/11/25 07:01:12;;;;;;;35.40;22.50;;;3.10;99.90;;;;;;4966753;28;20516;-55
2022/11/25 07:03:39;;;;;;;38.90;23.10;;;3.10;99.90;;;;;;4964948;28;20513;-54
2022/11/25 07:06:06;;;;;;;53.60;23.00;;;3.20;99.90;;;;;;4970832;28;20506;-55
2022/11/25 07:08:33;;;;;;;40.57;22.27;;;3.20;99.90;;;;;;4971262;28;20469;-54
2022/11/25 07:11:03;;;;;;;43.23;21.97;;;3.20;99.90;;;;;;4960001;28;20553;-57
2022/11/25 07:13:31;;;;;;;61.73;20.57;;;3.30;99.90;;;;;;4961217;28;20504;-55
2022/11/25 07:16:00;;;;;;;56.67;21.57;;;3.20;99.90;;;;;;4968959;28;20461;-54
2022/11/25 07:18:29;;;;;;;57.47;18.80;;;3.30;99.90;;;;;;4965287;28;20481;-55
2022/11/25 07:20:56;;;;;;;46.40;18.83;;;3.30;99.90;;;;;;4970300;28;20552;-54
2022/11/25 07:23:22;;;;;;;44.00;19.47;;;3.40;99.90;;;;;;4973401;28;20541;-54
2022/11/25 07:25:49;;;;;;;60.43;19.13;;;3.40;99.90;;;;;;4974911;28;20477;-55
2022/11/25 07:28:15;;;;;;;70.10;17.60;;;3.40;99.90;;;;;;4966175;28;20461;-55
2022/11/25 07:30:43;;;;;;;47.17;19.33;;;3.40;99.90;;;;;;4973440;28;20470;-57
2022/11/25 07:33:10;;;;;;;43.37;20.60;;;3.40;99.90;;;;;;4972506;28;20327;-56
2022/11/25 07:35:37;;;;;;;71.93;17.83;;;3.50;99.90;;;;;;4972205;28;20504;-57
2022/11/25 07:38:03;;;;;;;38.73;18.17;;;3.50;99.90;;;;;;4970972;28;20488;-57
2022/11/25 07:40:30;;;;;;;31.57;18.50;;;3.50;99.90;;;;;;4976540;28;20493;-56
2022/11/25 07:42:56;;;;;;;64.70;16.90;;;3.60;99.90;;;;;;4974080;28;20582;-57
2022/11/25 07:45:24;;;;;;;57.43;17.00;;;3.60;99.90;;;;;;4972923;28;21366;-58
2022/11/25 07:47:52;;;;;;;44.20;17.13;;;3.50;99.90;;;;;;4969255;28;20552;-56
2022/11/25 07:50:20;;;;;;;40.23;17.60;;;3.50;99.90;;;;;;4969220;28;20497;-57
2022/11/25 07:52:46;;;;;;;41.27;18.47;;;3.50;99.90;;;;;;4973938;28;20489;-56
2022/11/25 07:55:13;;;;;;;37.27;18.10;;;3.50;99.90;;;;;;4970838;28;20458;-57
2022/11/25 07:57:40;;;;;;;48.13;17.83;;;3.60;99.90;;;;;;4973394;28;20461;-57
2022/11/25 08:00:08;;;;;;;43.27;19.10;;;3.60;99.90;;;;;;4975738;28;20446;-57
2022/11/25 08:02:34;;;;;;;39.57;20.80;;;3.70;99.90;;;;;;4969505;28;20481;-56
2022/11/25 08:05:02;;;;;;;37.83;17.30;;;3.70;99.90;;;;;;4972383;28;20525;-57
2022/11/25 08:07:28;;;;;;;30.60;19.63;;;3.70;99.90;;;;;;4973577;28;20465;-56
2022/11/25 08:09:55;;;;;;;40.80;18.70;;;3.70;99.90;;;;;;4974201;28;20516;-56
2022/11/25 08:12:22;;;;;;;35.73;20.00;;;3.70;99.90;;;;;;4971252;28;20579;-57
2022/11/25 08:14:48;;;;;;;81.30;19.53;;;3.80;99.90;;;;;;4974609;28;20457;-57
2022/11/25 08:17:15;;;;;;;73.10;21.30;;;3.80;99.90;;;;;;4969483;28;20520;-53
2022/11/25 08:19:41;;;;;;;44.00;20.90;;;3.90;99.90;;;;;;4972680;28;21033;-53
2022/11/25 08:22:09;;;;;;;44.13;19.90;;;3.90;99.90;;;;;;4974254;28;20462;-53
2022/11/25 08:24:36;;;;;;;52.97;22.20;;;4.00;99.90;;;;;;4967536;28;20477;-53
2022/11/25 08:27:03;;;;;;;51.13;22.10;;;4.00;99.90;;;;;;4971245;28;20465;-53
2022/11/25 08:29:29;;;;;;;50.33;21.13;;;4.10;99.90;;;;;;4972567;28;20456;-52
2022/11/25 08:31:57;;;;;;;36.37;21.87;;;4.10;99.90;;;;;;4970177;28;20552;-54
2022/11/25 08:34:24;;;;;;;38.07;21.87;;;4.10;99.90;;;;;;4973176;28;20508;-54
2022/11/25 08:36:51;;;;;;;37.23;20.00;;;4.20;99.90;;;;;;4973936;28;20955;-54
2022/11/25 08:39:21;;;;;;;67.70;19.80;;;4.20;99.90;;;;;;4972262;28;20462;-53
2022/11/25 08:41:47;;;;;;;29.03;19.77;;;4.30;99.90;;;;;;4975454;28;20464;-53
2022/11/25 08:44:14;;;;;;;51.73;20.27;;;4.30;99.90;;;;;;4972187;28;20560;-54
2022/11/25 08:46:42;;;;;;;42.70;19.70;;;4.30;99.90;;;;;;4965707;28;20494;-54
2022/11/25 08:49:09;;;;;;;35.73;20.10;;;4.30;99.90;;;;;;4973354;28;20445;-52
2022/11/25 08:51:37;;;;;;;34.70;19.97;;;4.30;99.90;;;;;;4964130;28;20560;-54
2022/11/25 08:54:05;;;;;;;36.83;19.97;;;4.20;99.90;;;;;;4963399;28;20529;-54
2022/11/25 08:56:33;;;;;;;36.17;20.83;;;4.20;99.90;;;;;;4968332;28;20504;-54
2022/11/25 08:58:59;;;;;;;30.47;20.73;;;4.30;99.90;;;;;;4964799;28;20532;-53
2022/11/25 09:01:26;;;;;;;58.20;20.07;;;4.30;99.90;;;;;;4964799;28;20466;-54
2022/11/25 09:03:55;;;;;;;45.53;21.37;;;4.30;99.90;;;;;;4964474;28;20532;-53
2022/11/25 09:06:22;;;;;;;44.33;23.27;;;4.40;99.90;;;;;;4969413;28;20469;-52
2022/11/25 09:08:49;;;;;;;58.97;29.90;;;4.50;99.90;;;;;;4968416;28;20524;-54
2022/11/25 09:11:16;;;;;;;37.17;22.57;;;4.60;99.90;;;;;;4969407;28;20493;-51
2022/11/25 09:13:44;;;;;;;82.57;31.13;;;4.60;99.90;;;;;;4968986;28;20544;-54
2022/11/25 09:16:10;;;;;;;88.43;36.00;;;4.70;99.90;;;;;;4967136;28;20501;-50
2022/11/25 09:18:38;;;;;;;106.43;45.37;;;4.80;99.90;;;;;;4971896;28;20963;-50
2022/11/25 09:21:09;;;;;;;82.53;35.70;;;4.80;99.90;;;;;;4973130;28;20465;-50
2022/11/25 09:23:37;;;;;;;55.00;30.83;;;4.90;99.90;;;;;;4972425;28;20853;-50
2022/11/25 09:26:04;;;;;;;55.60;30.93;;;4.90;99.90;;;;;;4972365;28;20512;-49
2022/11/25 09:28:31;;;;;;;56.90;27.10;;;4.80;99.90;;;;;;4972942;28;20453;-49
2022/11/25 09:30:59;;;;;;;42.00;21.87;;;5.00;99.90;;;;;;4967380;28;20497;-50
2022/11/25 09:33:26;;;;;;;45.00;25.13;;;5.00;99.90;;;;;;4969499;28;20886;-51
2022/11/25 09:35:54;;;;;;;35.23;22.67;;;5.10;99.90;;;;;;4967932;28;20695;-51
2022/11/25 09:38:21;;;;;;;32.30;22.43;;;5.20;99.90;;;;;;4967607;28;20923;-50
2022/11/25 09:40:54;;;;;;;33.30;23.77;;;5.30;99.90;;;;;;4969541;28;20465;-50
2022/11/25 09:46:43;;;;;;;39.37;23.60;;;5.30;99.90;;;;;;4967508;28;20456;-50
2022/11/25 09:49:21;;;;;;;39.07;23.13;;;5.30;99.90;;;;;;4972034;28;20915;-50
2022/11/25 09:51:58;;;;;;;39.50;24.07;;;5.40;99.90;;;;;;4971451;28;20952;-51
2022/11/25 09:54:29;;;;;;;38.17;21.83;;;5.40;99.90;;;;;;4962778;28;20960;-51
2022/11/25 09:57:03;;;;;;;35.50;25.00;;;5.40;99.90;;;;;;4963401;28;20465;-50
2022/11/25 09:59:39;;;;;;;30.70;23.37;;;5.50;99.90;;;;;;4966657;28;20454;-50
2022/11/25 10:02:15;;;;;;;28.97;20.47;;;5.40;99.90;;;;;;4968848;28;20895;-51
2022/11/25 10:04:49;;;;;;;33.00;19.60;;;5.40;99.90;;;;;;4964709;28;20890;-50
2022/11/25 10:07:22;;;;;;;37.13;24.57;;;5.50;99.90;;;;;;4965187;28;20983;-50
2022/11/25 10:09:49;;;;;;;31.70;22.20;;;5.70;99.90;;;;;;4966281;28;22335;-51
2022/11/25 10:12:24;;;;;;;34.40;22.07;;;5.70;99.90;;;;;;4973011;28;20585;-50
2022/11/25 10:14:55;;;;;;;29.80;20.87;;;5.70;99.90;;;;;;4969127;28;20457;-50
2022/11/25 10:17:35;;;;;;;32.23;21.20;;;5.60;99.90;;;;;;4968249;28;20470;-51
2022/11/25 10:20:05;;;;;;;32.17;21.13;;;5.60;99.90;;;;;;4966538;28;20469;-50
2022/11/25 10:22:34;;;;;;;33.13;20.93;;;5.70;99.90;;;;;;4969491;28;20892;-50
2022/11/25 10:25:03;;;;;;;27.83;20.33;;;5.80;99.90;;;;;;4963396;28;20489;-50
2022/11/25 10:27:38;;;;;;;31.20;22.57;;;5.80;99.90;;;;;;4965230;28;20473;-50
2022/11/25 10:30:15;;;;;;;32.63;22.20;;;5.80;99.90;;;;;;4962424;28;20519;-50
2022/11/25 10:32:46;;;;;;;27.30;19.27;;;5.80;99.90;;;;;;4968950;28;20481;-50
2022/11/25 10:35:28;;;;;;;24.73;17.50;;;5.80;99.90;;;;;;4970693;28;20465;-51
2022/11/25 10:37:57;;;;;;;28.00;18.60;;;5.70;99.90;;;;;;4971080;28;20465;-50
2022/11/25 10:40:24;;;;;;;28.50;20.23;;;5.70;99.90;;;;;;4974892;28;20462;-50
2022/11/25 10:42:51;;;;;;;25.33;18.80;;;5.60;99.90;;;;;;4977448;28;20489;-50
2022/11/25 10:45:22;;;;;;;26.90;17.67;;;5.70;99.90;;;;;;4971122;28;20552;-49
2022/11/25 10:48:13;;;;;;;27.33;18.67;;;5.70;99.90;;;;;;4970687;28;21006;-51
2022/11/25 10:50:50;;;;;;;22.40;17.17;;;5.60;99.90;;;;;;4966462;28;20466;-50
2022/11/25 10:53:20;;;;;;;25.33;17.20;;;5.50;99.90;;;;;;4970499;28;20489;-51
2022/11/25 10:55:59;;;;;;;29.87;18.60;;;5.50;99.90;;;;;;4972378;28;20461;-49
2022/11/25 10:58:29;;;;;;;25.77;19.30;;;5.60;99.90;;;;;;4972756;28;20457;-49
2022/11/25 11:01:12;;;;;;;26.80;19.23;;;5.80;99.90;;;;;;4975412;28;20947;-50
2022/11/25 11:03:41;;;;;;;25.77;17.87;;;5.80;99.90;;;;;;4972009;28;21048;-50
2022/11/25 11:06:29;;;;;;;23.43;17.17;;;5.90;99.90;;;;;;4974063;28;20516;-50
2022/11/25 11:08:56;;;;;;;31.00;18.63;;;6.00;99.90;;;;;;4971310;28;20461;-50
2022/11/25 11:11:24;;;;;;;26.67;19.40;;;5.90;99.90;;;;;;4973351;28;20461;-50
2022/11/25 11:13:58;;;;;;;24.47;19.17;;;6.00;99.90;;;;;;4973281;28;20866;-50
2022/11/25 11:16:29;;;;;;;28.03;19.77;;;5.90;99.90;;;;;;4976049;28;20616;-50
2022/11/25 11:18:57;;;;;;;32.33;20.43;;;6.00;99.90;;;;;;4973065;28;20520;-50
2022/11/25 11:21:29;;;;;;;27.53;19.70;;;6.00;99.90;;;;;;4973207;28;20552;-50
2022/11/25 11:23:58;;;;;;;22.63;18.10;;;6.00;99.90;;;;;;4973364;28;20544;-50
2022/11/25 11:26:27;;;;;;;25.30;19.00;;;6.00;99.90;;;;;;4969018;28;20486;-57
2022/11/25 11:29:00;;;;;;;26.83;20.23;;;6.00;99.90;;;;;;4967033;28;20457;-58
2022/11/25 11:31:31;;;;;;;31.17;20.40;;;6.00;99.90;;;;;;4971925;28;20492;-58
2022/11/25 11:34:06;;;;;;;31.00;22.00;;;6.00;99.90;;;;;;4972821;28;20613;-58
2022/11/25 11:36:50;;;;;;;31.47;22.20;;;6.10;99.90;;;;;;4969245;28;20979;-57
2022/11/25 11:39:35;;;;;;;33.33;22.97;;;6.10;99.90;;;;;;4969633;28;20461;-57
2022/11/25 11:42:10;;;;;;;28.80;21.00;;;6.20;99.90;;;;;;4968276;28;20485;-58
2022/11/25 11:44:51;;;;;;;32.63;22.90;;;6.20;99.90;;;;;;4974573;28;20974;-58
2022/11/25 11:47:26;;;;;;;31.10;22.37;;;6.20;99.90;;;;;;4973814;28;20871;-58
2022/11/25 11:50:17;;;;;;;32.50;23.60;;;6.20;99.90;;;;;;4969269;28;20464;-58
2022/11/25 11:52:53;;;;;;;35.50;22.33;;;6.00;99.90;;;;;;4974558;28;20481;-58
2022/11/25 11:55:38;;;;;;;39.77;25.77;;;6.00;99.90;;;;;;4973969;28;20492;-57
2022/11/25 11:58:13;;;;;;;31.50;20.97;;;6.00;99.90;;;;;;4970652;28;20492;-56
2022/11/25 12:00:47;;;;;;;32.87;22.50;;;5.90;99.90;;;;;;4970643;28;20461;-58
2022/11/25 12:03:18;;;;;;;36.77;23.23;;;6.00;99.90;;;;;;4976807;28;20484;-57
2022/11/25 12:05:52;;;;;;;32.07;23.70;;;6.00;99.90;;;;;;4970957;28;21276;-57
2022/11/25 12:08:27;;;;;;;32.47;22.33;;;6.10;99.90;;;;;;4983518;23;20466;-54
2022/11/25 12:10:57;;;;;;;30.30;22.33;;;6.00;99.90;;;;;;4971615;28;20492;-55
2022/11/25 12:13:31;;;;;;;28.17;20.43;;;6.10;99.90;;;;;;4973090;28;20466;-55
2022/11/25 12:16:05;;;;;;;34.70;23.37;;;6.10;99.90;;;;;;4971849;28;20464;-56
2022/11/25 12:18:41;;;;;;;35.40;23.40;;;6.20;99.90;;;;;;4967269;28;20603;-55
2022/11/25 12:21:18;;;;;;;36.00;22.83;;;6.20;99.90;;;;;;4970413;28;20493;-55
2022/11/25 12:23:56;;;;;;;32.27;23.50;;;6.10;99.90;;;;;;4966663;28;20470;-55
2022/11/25 12:26:30;;;;;;;34.83;24.00;;;6.00;99.90;;;;;;4967488;28;20547;-54
2022/11/25 12:29:01;;;;;;;33.17;24.00;;;5.90;99.90;;;;;;4958423;28;20508;-54
2022/11/25 12:31:35;;;;;;;40.93;25.97;;;5.90;99.90;;;;;;4969678;28;20512;-55
2022/11/25 12:34:07;;;;;;;36.57;24.00;;;5.80;99.90;;;;;;4964124;28;20493;-54
2022/11/25 12:36:38;;;;;;;35.97;25.30;;;5.80;99.90;;;;;;4969588;28;20485;-56
2022/11/25 12:39:18;;;;;;;31.73;23.37;;;5.70;99.90;;;;;;4966918;28;21078;-56
2022/11/25 12:41:50;;;;;;;35.50;24.67;;;5.70;99.90;;;;;;4971369;28;20497;-56
2022/11/25 12:44:22;;;;;;;36.37;24.03;;;5.60;99.90;;;;;;4970506;28;20493;-54
2022/11/25 12:46:50;;;;;;;35.67;24.60;;;5.60;99.90;;;;;;4971284;28;20571;-55
2022/11/25 12:49:20;;;;;;;37.60;25.07;;;5.60;99.90;;;;;;4966612;28;20490;-55
2022/11/25 12:52:11;;;;;;;32.03;23.57;;;5.60;99.90;;;;;;4968635;28;20473;-55